Beacon Falls, Connecticut
Current Conditions -  °F | °C
As of 6:45 AM on Friday 19 Dec 2014 (Local Time) from KOXC Reporting Station
Overcast Overcast  
Wind Chill: 24°   Ceiling: 3400
Heat Index: 32°   Visibility: 10mi
Dew Point: 19°   Wind: 9mph
Humidity: 60%   Direction: 320°NW
Pressure: 29.96"   Gusts: NA
Location:  41.44°N, 73.06°W
Report Text: KOXC 191145Z 32008KT 10SM SCT027 OVC034 00/M07 A2996
Loading
Personal Weather Stations






























Interactive Weather Map New forecast layout! Learn more

10-Day Weather Forecast

Advertisements
Track Severe Weather on mobile